sensor_id;sensor_type;location;lat;lon;timestamp;pressure;altitude;pressure_sealevel;temperature;humidity
70256;BME280;57669;52.624;-1.688;2023-02-02T00:00:15;101904.16;;;5.68;58.40
70256;BME280;57669;52.624;-1.688;2023-02-02T00:02:41;101906.92;;;5.67;58.44
70256;BME280;57669;52.624;-1.688;2023-02-02T00:05:07;101904.10;;;5.34;60.32
70256;BME280;57669;52.624;-1.688;2023-02-02T00:07:33;101907.49;;;5.71;58.33
70256;BME280;57669;52.624;-1.688;2023-02-02T00:09:58;101906.39;;;5.53;58.92
70256;BME280;57669;52.624;-1.688;2023-02-02T00:12:24;101901.41;;;5.58;59.63
70256;BME280;57669;52.624;-1.688;2023-02-02T00:14:49;101900.87;;;5.59;59.54
70256;BME280;57669;52.624;-1.688;2023-02-02T00:17:15;101886.84;;;5.55;59.24
70256;BME280;57669;52.624;-1.688;2023-02-02T00:19:40;101890.66;;;5.10;61.28
70256;BME280;57669;52.624;-1.688;2023-02-02T00:22:05;101891.94;;;5.16;60.90
70256;BME280;57669;52.624;-1.688;2023-02-02T00:24:30;101888.32;;;5.62;59.64
70256;BME280;57669;52.624;-1.688;2023-02-02T00:26:57;101897.79;;;4.80;61.17
70256;BME280;57669;52.624;-1.688;2023-02-02T00:29:23;101895.72;;;5.07;60.68
70256;BME280;57669;52.624;-1.688;2023-02-02T00:31:48;101904.01;;;4.91;61.56
70256;BME280;57669;52.624;-1.688;2023-02-02T00:34:13;101901.51;;;5.11;61.20
70256;BME280;57669;52.624;-1.688;2023-02-02T00:36:38;101897.23;;;6.27;58.28
70256;BME280;57669;52.624;-1.688;2023-02-02T00:39:03;101897.47;;;5.76;58.05
70256;BME280;57669;52.624;-1.688;2023-02-02T00:41:29;101899.97;;;6.08;57.77
70256;BME280;57669;52.624;-1.688;2023-02-02T00:43:54;101890.56;;;5.45;59.55
70256;BME280;57669;52.624;-1.688;2023-02-02T00:46:20;101882.10;;;6.15;58.72
70256;BME280;57669;52.624;-1.688;2023-02-02T00:48:45;101880.63;;;5.87;58.61
70256;BME280;57669;52.624;-1.688;2023-02-02T00:51:11;101875.76;;;5.58;59.78
70256;BME280;57669;52.624;-1.688;2023-02-02T00:53:37;101883.48;;;5.51;59.61
70256;BME280;57669;52.624;-1.688;2023-02-02T00:56:03;101894.01;;;6.10;57.68
70256;BME280;57669;52.624;-1.688;2023-02-02T00:58:28;101891.99;;;5.35;59.71
70256;BME280;57669;52.624;-1.688;2023-02-02T01:00:53;101891.51;;;5.97;58.43
70256;BME280;57669;52.624;-1.688;2023-02-02T01:03:19;101897.36;;;6.03;57.85
70256;BME280;57669;52.624;-1.688;2023-02-02T01:05:44;101893.39;;;6.08;57.76
70256;BME280;57669;52.624;-1.688;2023-02-02T01:08:10;101899.42;;;6.09;58.36
70256;BME280;57669;52.624;-1.688;2023-02-02T01:10:35;101901.54;;;5.41;59.83
70256;BME280;57669;52.624;-1.688;2023-02-02T01:13:01;101894.75;;;6.06;58.61
70256;BME280;57669;52.624;-1.688;2023-02-02T01:15:27;101894.48;;;5.92;58.71
70256;BME280;57669;52.624;-1.688;2023-02-02T01:17:52;101898.34;;;6.09;58.42
70256;BME280;57669;52.624;-1.688;2023-02-02T01:20:19;101905.78;;;5.68;59.21
70256;BME280;57669;52.624;-1.688;2023-02-02T01:22:44;101906.17;;;5.39;59.98
70256;BME280;57669;52.624;-1.688;2023-02-02T01:25:10;101904.94;;;5.67;59.55
70256;BME280;57669;52.624;-1.688;2023-02-02T01:27:35;101904.77;;;5.62;60.28
70256;BME280;57669;52.624;-1.688;2023-02-02T01:30:01;101914.37;;;5.69;59.38
70256;BME280;57669;52.624;-1.688;2023-02-02T01:32:27;101911.11;;;5.99;58.91
70256;BME280;57669;52.624;-1.688;2023-02-02T01:34:52;101903.98;;;5.76;58.52
70256;BME280;57669;52.624;-1.688;2023-02-02T01:37:18;101907.06;;;5.25;60.36
70256;BME280;57669;52.624;-1.688;2023-02-02T01:39:43;101906.10;;;5.84;59.71
70256;BME280;57669;52.624;-1.688;2023-02-02T01:42:12;101905.88;;;5.82;59.23
70256;BME280;57669;52.624;-1.688;2023-02-02T01:46:58;101896.87;;;5.73;59.31
70256;BME280;57669;52.624;-1.688;2023-02-02T01:49:24;101892.09;;;5.17;60.26
70256;BME280;57669;52.624;-1.688;2023-02-02T01:51:52;101893.69;;;5.69;59.01
70256;BME280;57669;52.624;-1.688;2023-02-02T01:54:19;101900.10;;;5.11;59.94
70256;BME280;57669;52.624;-1.688;2023-02-02T01:56:45;101889.04;;;5.52;59.69
70256;BME280;57669;52.624;-1.688;2023-02-02T01:59:06;101891.14;;;5.61;58.76
70256;BME280;57669;52.624;-1.688;2023-02-02T02:01:31;101889.26;;;5.60;58.76
70256;BME280;57669;52.624;-1.688;2023-02-02T02:03:56;101887.33;;;5.81;57.94
70256;BME280;57669;52.624;-1.688;2023-02-02T02:06:22;101890.33;;;5.36;58.76
70256;BME280;57669;52.624;-1.688;2023-02-02T02:08:51;101888.87;;;5.24;58.82
70256;BME280;57669;52.624;-1.688;2023-02-02T02:11:13;101887.04;;;5.54;58.21
70256;BME280;57669;52.624;-1.688;2023-02-02T02:13:38;101882.06;;;5.88;57.29
70256;BME280;57669;52.624;-1.688;2023-02-02T02:16:09;101877.66;;;5.62;57.28
70256;BME280;57669;52.624;-1.688;2023-02-02T02:18:41;101876.02;;;5.86;57.28
70256;BME280;57669;52.624;-1.688;2023-02-02T02:21:13;101873.81;;;5.48;56.74
70256;BME280;57669;52.624;-1.688;2023-02-02T02:23:37;101876.47;;;5.54;56.51
70256;BME280;57669;52.624;-1.688;2023-02-02T02:26:02;101879.53;;;5.67;56.12
70256;BME280;57669;52.624;-1.688;2023-02-02T02:30:51;101869.64;;;5.75;56.90
70256;BME280;57669;52.624;-1.688;2023-02-02T02:33:05;101875.73;;;5.19;57.54
70256;BME280;57669;52.624;-1.688;2023-02-02T02:35:32;101880.42;;;5.30;58.47
70256;BME280;57669;52.624;-1.688;2023-02-02T02:37:59;101887.98;;;4.91;59.98
70256;BME280;57669;52.624;-1.688;2023-02-02T02:40:24;101882.17;;;4.68;59.71
70256;BME280;57669;52.624;-1.688;2023-02-02T02:42:48;101886.59;;;5.23;58.27
70256;BME280;57669;52.624;-1.688;2023-02-02T02:45:12;101884.75;;;4.85;59.32
70256;BME280;57669;52.624;-1.688;2023-02-02T02:47:38;101888.28;;;5.06;58.96
70256;BME280;57669;52.624;-1.688;2023-02-02T02:50:03;101889.13;;;5.07;58.94
70256;BME280;57669;52.624;-1.688;2023-02-02T02:52:28;101890.62;;;5.45;58.60
70256;BME280;57669;52.624;-1.688;2023-02-02T02:54:54;101885.75;;;5.18;59.30
70256;BME280;57669;52.624;-1.688;2023-02-02T02:57:30;101891.57;;;5.62;58.26
70256;BME280;57669;52.624;-1.688;2023-02-02T02:59:50;101890.61;;;5.41;58.60
70256;BME280;57669;52.624;-1.688;2023-02-02T03:02:20;101882.74;;;5.14;58.81
70256;BME280;57669;52.624;-1.688;2023-02-02T03:04:39;101880.68;;;5.08;58.96
70256;BME280;57669;52.624;-1.688;2023-02-02T03:07:03;101879.60;;;5.08;59.08
70256;BME280;57669;52.624;-1.688;2023-02-02T03:09:28;101882.02;;;5.31;59.20
70256;BME280;57669;52.624;-1.688;2023-02-02T03:11:50;101883.80;;;4.97;60.38
70256;BME280;57669;52.624;-1.688;2023-02-02T03:14:16;101874.69;;;4.76;59.96
70256;BME280;57669;52.624;-1.688;2023-02-02T03:16:41;101879.75;;;5.12;59.65
70256;BME280;57669;52.624;-1.688;2023-02-02T03:19:07;101876.23;;;4.68;60.10
70256;BME280;57669;52.624;-1.688;2023-02-02T03:21:33;101876.33;;;5.14;59.60
70256;BME280;57669;52.624;-1.688;2023-02-02T03:23:58;101883.01;;;4.70;60.56
70256;BME280;57669;52.624;-1.688;2023-02-02T03:26:23;101890.05;;;4.67;60.67
70256;BME280;57669;52.624;-1.688;2023-02-02T03:28:49;101888.72;;;4.51;60.49
70256;BME280;57669;52.624;-1.688;2023-02-02T03:31:13;101877.46;;;4.79;60.67
70256;BME280;57669;52.624;-1.688;2023-02-02T03:33:39;101870.69;;;4.85;60.46
70256;BME280;57669;52.624;-1.688;2023-02-02T03:36:05;101864.68;;;5.18;58.99
70256;BME280;57669;52.624;-1.688;2023-02-02T03:38:30;101868.35;;;5.35;58.51
70256;BME280;57669;52.624;-1.688;2023-02-02T03:40:56;101867.51;;;5.47;58.19
70256;BME280;57669;52.624;-1.688;2023-02-02T03:43:22;101864.05;;;4.80;58.42
70256;BME280;57669;52.624;-1.688;2023-02-02T03:45:47;101864.57;;;5.09;59.53
70256;BME280;57669;52.624;-1.688;2023-02-02T03:48:12;101866.12;;;5.35;58.47
70256;BME280;57669;52.624;-1.688;2023-02-02T03:50:38;101864.02;;;5.06;58.48
70256;BME280;57669;52.624;-1.688;2023-02-02T03:53:04;101864.50;;;5.09;59.11
70256;BME280;57669;52.624;-1.688;2023-02-02T03:55:29;101862.46;;;5.39;58.64
70256;BME280;57669;52.624;-1.688;2023-02-02T03:57:54;101853.54;;;5.23;58.48
70256;BME280;57669;52.624;-1.688;2023-02-02T04:00:20;101852.46;;;5.59;58.13
70256;BME280;57669;52.624;-1.688;2023-02-02T04:02:45;101861.71;;;5.51;57.90
70256;BME280;57669;52.624;-1.688;2023-02-02T04:05:11;101862.08;;;5.28;58.96
70256;BME280;57669;52.624;-1.688;2023-02-02T04:07:37;101872.85;;;5.04;59.31
70256;BME280;57669;52.624;-1.688;2023-02-02T04:10:02;101861.12;;;5.18;59.33
70256;BME280;57669;52.624;-1.688;2023-02-02T04:12:27;101862.60;;;4.56;60.64
70256;BME280;57669;52.624;-1.688;2023-02-02T04:14:53;101859.31;;;4.87;60.51
70256;BME280;57669;52.624;-1.688;2023-02-02T04:17:19;101856.63;;;5.06;60.84
70256;BME280;57669;52.624;-1.688;2023-02-02T04:19:44;101849.05;;;4.92;60.13
70256;BME280;57669;52.624;-1.688;2023-02-02T04:22:10;101845.44;;;5.08;60.42
70256;BME280;57669;52.624;-1.688;2023-02-02T04:24:35;101851.12;;;4.65;61.15
70256;BME280;57669;52.624;-1.688;2023-02-02T04:27:01;101847.99;;;4.60;62.27
70256;BME280;57669;52.624;-1.688;2023-02-02T04:29:26;101848.78;;;4.72;61.88
70256;BME280;57669;52.624;-1.688;2023-02-02T04:31:52;101845.10;;;4.12;63.68
70256;BME280;57669;52.624;-1.688;2023-02-02T04:34:17;101839.98;;;4.13;63.84
70256;BME280;57669;52.624;-1.688;2023-02-02T04:36:43;101841.12;;;4.57;62.95
70256;BME280;57669;52.624;-1.688;2023-02-02T04:39:09;101832.95;;;4.42;63.16
70256;BME280;57669;52.624;-1.688;2023-02-02T04:41:34;101838.18;;;4.23;63.79
70256;BME280;57669;52.624;-1.688;2023-02-02T04:43:59;101828.81;;;4.28;63.68
70256;BME280;57669;52.624;-1.688;2023-02-02T04:46:25;101837.35;;;4.23;64.48
70256;BME280;57669;52.624;-1.688;2023-02-02T04:48:50;101835.62;;;4.02;64.68
70256;BME280;57669;52.624;-1.688;2023-02-02T04:51:16;101841.17;;;4.56;62.92
70256;BME280;57669;52.624;-1.688;2023-02-02T04:53:41;101838.58;;;4.43;63.70
70256;BME280;57669;52.624;-1.688;2023-02-02T04:56:08;101840.44;;;4.25;64.26
70256;BME280;57669;52.624;-1.688;2023-02-02T04:58:32;101843.24;;;4.64;63.55
70256;BME280;57669;52.624;-1.688;2023-02-02T05:00:58;101841.32;;;4.55;63.73
70256;BME280;57669;52.624;-1.688;2023-02-02T05:03:23;101845.65;;;4.24;64.75
70256;BME280;57669;52.624;-1.688;2023-02-02T05:05:49;101846.81;;;3.72;65.87
70256;BME280;57669;52.624;-1.688;2023-02-02T05:08:14;101842.05;;;4.35;64.66
70256;BME280;57669;52.624;-1.688;2023-02-02T05:10:40;101855.88;;;4.09;65.17
70256;BME280;57669;52.624;-1.688;2023-02-02T05:13:05;101852.56;;;3.84;65.85
70256;BME280;57669;52.624;-1.688;2023-02-02T05:15:31;101841.56;;;4.90;63.50
70256;BME280;57669;52.624;-1.688;2023-02-02T05:17:56;101843.74;;;4.71;63.78
70256;BME280;57669;52.624;-1.688;2023-02-02T05:20:21;101835.07;;;4.08;64.89
70256;BME280;57669;52.624;-1.688;2023-02-02T05:22:47;101838.08;;;5.05;63.19
70256;BME280;57669;52.624;-1.688;2023-02-02T05:25:12;101843.30;;;4.85;63.46
70256;BME280;57669;52.624;-1.688;2023-02-02T05:27:37;101843.55;;;5.25;62.03
70256;BME280;57669;52.624;-1.688;2023-02-02T05:30:04;101847.61;;;4.37;64.27
70256;BME280;57669;52.624;-1.688;2023-02-02T05:32:28;101838.93;;;4.33;65.06
70256;BME280;57669;52.624;-1.688;2023-02-02T05:34:54;101848.77;;;4.27;65.17
70256;BME280;57669;52.624;-1.688;2023-02-02T05:37:20;101843.30;;;4.51;64.86
70256;BME280;57669;52.624;-1.688;2023-02-02T05:39:45;101843.31;;;4.76;63.27
70256;BME280;57669;52.624;-1.688;2023-02-02T05:42:11;101844.48;;;4.47;63.76
70256;BME280;57669;52.624;-1.688;2023-02-02T05:44:37;101847.40;;;5.04;63.75
70256;BME280;57669;52.624;-1.688;2023-02-02T05:47:02;101850.02;;;4.11;65.32
70256;BME280;57669;52.624;-1.688;2023-02-02T05:49:28;101844.79;;;4.96;64.37
70256;BME280;57669;52.624;-1.688;2023-02-02T05:51:55;101854.99;;;4.48;64.92
70256;BME280;57669;52.624;-1.688;2023-02-02T05:54:18;101848.75;;;4.83;64.15
70256;BME280;57669;52.624;-1.688;2023-02-02T05:56:43;101858.05;;;4.51;64.63
70256;BME280;57669;52.624;-1.688;2023-02-02T05:59:08;101861.61;;;4.92;65.03
70256;BME280;57669;52.624;-1.688;2023-02-02T06:01:34;101861.86;;;4.82;65.45
70256;BME280;57669;52.624;-1.688;2023-02-02T06:04:00;101861.92;;;4.30;65.49
70256;BME280;57669;52.624;-1.688;2023-02-02T06:06:25;101860.23;;;4.26;67.05
70256;BME280;57669;52.624;-1.688;2023-02-02T06:08:51;101860.93;;;4.31;66.89
70256;BME280;57669;52.624;-1.688;2023-02-02T06:11:17;101861.31;;;5.05;65.34
70256;BME280;57669;52.624;-1.688;2023-02-02T06:13:42;101860.57;;;4.47;65.65
70256;BME280;57669;52.624;-1.688;2023-02-02T06:16:08;101861.19;;;5.26;64.93
70256;BME280;57669;52.624;-1.688;2023-02-02T06:18:32;101856.72;;;5.20;64.43
70256;BME280;57669;52.624;-1.688;2023-02-02T06:20:59;101856.75;;;5.01;63.75
70256;BME280;57669;52.624;-1.688;2023-02-02T06:23:23;101850.44;;;5.33;62.97
70256;BME280;57669;52.624;-1.688;2023-02-02T06:25:49;101846.40;;;5.13;64.25
70256;BME280;57669;52.624;-1.688;2023-02-02T06:28:14;101846.94;;;5.13;64.89
70256;BME280;57669;52.624;-1.688;2023-02-02T06:30:40;101846.52;;;5.08;64.70
70256;BME280;57669;52.624;-1.688;2023-02-02T06:33:05;101834.95;;;4.93;65.17
70256;BME280;57669;52.624;-1.688;2023-02-02T06:35:31;101840.06;;;4.81;66.40
70256;BME280;57669;52.624;-1.688;2023-02-02T06:37:57;101844.61;;;4.65;67.38
70256;BME280;57669;52.624;-1.688;2023-02-02T06:40:22;101837.00;;;4.53;68.06
70256;BME280;57669;52.624;-1.688;2023-02-02T06:42:47;101851.37;;;4.80;67.43
70256;BME280;57669;52.624;-1.688;2023-02-02T06:45:13;101851.72;;;4.75;67.46
70256;BME280;57669;52.624;-1.688;2023-02-02T06:47:38;101858.18;;;4.46;69.14
70256;BME280;57669;52.624;-1.688;2023-02-02T06:50:04;101860.27;;;4.46;67.94
70256;BME280;57669;52.624;-1.688;2023-02-02T06:52:29;101864.92;;;4.66;67.54
70256;BME280;57669;52.624;-1.688;2023-02-02T06:54:55;101866.92;;;4.32;68.97
70256;BME280;57669;52.624;-1.688;2023-02-02T06:57:19;101872.56;;;4.47;68.90
70256;BME280;57669;52.624;-1.688;2023-02-02T06:59:46;101872.77;;;4.75;68.26
70256;BME280;57669;52.624;-1.688;2023-02-02T07:02:11;101880.25;;;4.58;68.54
70256;BME280;57669;52.624;-1.688;2023-02-02T07:04:36;101875.48;;;4.88;67.45
70256;BME280;57669;52.624;-1.688;2023-02-02T07:07:02;101873.34;;;4.80;67.99
70256;BME280;57669;52.624;-1.688;2023-02-02T07:09:27;101878.43;;;4.72;68.16
70256;BME280;57669;52.624;-1.688;2023-02-02T07:11:52;101886.47;;;4.92;68.44
70256;BME280;57669;52.624;-1.688;2023-02-02T07:14:18;101887.81;;;4.77;67.64
70256;BME280;57669;52.624;-1.688;2023-02-02T07:16:43;101892.88;;;4.94;68.53
70256;BME280;57669;52.624;-1.688;2023-02-02T07:19:09;101895.87;;;5.01;68.13
70256;BME280;57669;52.624;-1.688;2023-02-02T07:21:34;101885.97;;;5.20;67.36
70256;BME280;57669;52.624;-1.688;2023-02-02T07:24:00;101882.81;;;5.82;66.30
70256;BME280;57669;52.624;-1.688;2023-02-02T07:26:26;101874.56;;;4.97;67.78
70256;BME280;57669;52.624;-1.688;2023-02-02T07:28:52;101878.25;;;5.07;67.74
70256;BME280;57669;52.624;-1.688;2023-02-02T07:31:19;101890.19;;;5.06;68.04
70256;BME280;57669;52.624;-1.688;2023-02-02T07:33:44;101873.16;;;5.60;66.88
70256;BME280;57669;52.624;-1.688;2023-02-02T07:36:09;101881.19;;;5.43;66.43
70256;BME280;57669;52.624;-1.688;2023-02-02T07:38:34;101874.38;;;5.51;67.06
70256;BME280;57669;52.624;-1.688;2023-02-02T07:41:01;101883.99;;;5.20;67.28
70256;BME280;57669;52.624;-1.688;2023-02-02T07:43:26;101897.74;;;5.03;68.04
70256;BME280;57669;52.624;-1.688;2023-02-02T07:45:51;101898.93;;;5.11;67.35
70256;BME280;57669;52.624;-1.688;2023-02-02T07:48:17;101901.01;;;4.95;66.41
70256;BME280;57669;52.624;-1.688;2023-02-02T07:50:42;101900.07;;;5.33;66.74
70256;BME280;57669;52.624;-1.688;2023-02-02T07:53:08;101893.47;;;5.03;67.59
70256;BME280;57669;52.624;-1.688;2023-02-02T07:55:34;101890.03;;;5.88;65.64
70256;BME280;57669;52.624;-1.688;2023-02-02T07:58:00;101894.60;;;5.80;65.72
70256;BME280;57669;52.624;-1.688;2023-02-02T08:00:26;101895.69;;;5.95;65.32
70256;BME280;57669;52.624;-1.688;2023-02-02T08:02:51;101899.25;;;5.60;66.03
70256;BME280;57669;52.624;-1.688;2023-02-02T08:05:17;101896.30;;;5.43;65.78
70256;BME280;57669;52.624;-1.688;2023-02-02T08:07:43;101889.41;;;5.72;64.42
70256;BME280;57669;52.624;-1.688;2023-02-02T08:10:09;101895.55;;;5.35;65.33
70256;BME280;57669;52.624;-1.688;2023-02-02T08:12:34;101893.17;;;5.15;67.05
70256;BME280;57669;52.624;-1.688;2023-02-02T08:15:00;101888.41;;;5.92;65.94
70256;BME280;57669;52.624;-1.688;2023-02-02T08:17:26;101884.82;;;5.36;66.84
70256;BME280;57669;52.624;-1.688;2023-02-02T08:19:52;101893.50;;;5.48;66.42
70256;BME280;57669;52.624;-1.688;2023-02-02T08:22:18;101890.31;;;5.09;67.42
70256;BME280;57669;52.624;-1.688;2023-02-02T08:24:43;101895.09;;;5.73;66.06
70256;BME280;57669;52.624;-1.688;2023-02-02T08:27:09;101892.64;;;5.50;67.87
70256;BME280;57669;52.624;-1.688;2023-02-02T08:29:35;101887.56;;;5.27;67.40
70256;BME280;57669;52.624;-1.688;2023-02-02T08:32:01;101890.34;;;5.40;66.87
70256;BME280;57669;52.624;-1.688;2023-02-02T08:34:25;101900.67;;;5.26;67.46
70256;BME280;57669;52.624;-1.688;2023-02-02T08:36:51;101895.24;;;5.30;67.76
70256;BME280;57669;52.624;-1.688;2023-02-02T08:39:16;101890.53;;;5.32;67.88
70256;BME280;57669;52.624;-1.688;2023-02-02T08:41:42;101895.19;;;5.24;68.34
70256;BME280;57669;52.624;-1.688;2023-02-02T08:44:11;101898.83;;;5.15;68.03
70256;BME280;57669;52.624;-1.688;2023-02-02T08:46:34;101897.14;;;5.47;67.28
70256;BME280;57669;52.624;-1.688;2023-02-02T08:49:00;101899.16;;;5.64;66.13
70256;BME280;57669;52.624;-1.688;2023-02-02T08:51:25;101905.76;;;5.53;66.37
70256;BME280;57669;52.624;-1.688;2023-02-02T08:53:51;101908.98;;;6.07;65.19
70256;BME280;57669;52.624;-1.688;2023-02-02T08:56:18;101909.97;;;5.66;66.16
70256;BME280;57669;52.624;-1.688;2023-02-02T08:58:44;101913.19;;;5.77;65.59
70256;BME280;57669;52.624;-1.688;2023-02-02T09:01:16;101915.59;;;5.70;66.83
70256;BME280;57669;52.624;-1.688;2023-02-02T09:03:34;101908.66;;;5.96;66.15
70256;BME280;57669;52.624;-1.688;2023-02-02T09:06:04;101911.82;;;6.06;65.49
70256;BME280;57669;52.624;-1.688;2023-02-02T09:08:26;101908.59;;;6.13;65.78
70256;BME280;57669;52.624;-1.688;2023-02-02T09:10:52;101916.10;;;6.16;65.04
70256;BME280;57669;52.624;-1.688;2023-02-02T09:13:18;101919.59;;;5.74;66.07
70256;BME280;57669;52.624;-1.688;2023-02-02T09:15:43;101924.25;;;6.28;65.52
70256;BME280;57669;52.624;-1.688;2023-02-02T09:18:09;101921.31;;;5.90;65.23
70256;BME280;57669;52.624;-1.688;2023-02-02T09:20:35;101934.00;;;6.35;64.81
70256;BME280;57669;52.624;-1.688;2023-02-02T09:23:01;101938.91;;;6.51;62.99
70256;BME280;57669;52.624;-1.688;2023-02-02T09:25:27;101947.87;;;6.45;64.00
70256;BME280;57669;52.624;-1.688;2023-02-02T09:27:52;101946.18;;;6.61;63.68
70256;BME280;57669;52.624;-1.688;2023-02-02T09:30:18;101950.26;;;6.48;63.42
70256;BME280;57669;52.624;-1.688;2023-02-02T09:32:45;101945.84;;;6.84;63.33
70256;BME280;57669;52.624;-1.688;2023-02-02T09:35:10;101959.41;;;6.63;63.54
70256;BME280;57669;52.624;-1.688;2023-02-02T09:37:36;101954.59;;;6.96;63.35
70256;BME280;57669;52.624;-1.688;2023-02-02T09:40:02;101959.57;;;6.83;62.12
70256;BME280;57669;52.624;-1.688;2023-02-02T09:42:37;101965.70;;;7.40;61.03
70256;BME280;57669;52.624;-1.688;2023-02-02T09:44:57;101959.61;;;7.48;59.63
70256;BME280;57669;52.624;-1.688;2023-02-02T09:47:22;101965.51;;;7.09;60.37
70256;BME280;57669;52.624;-1.688;2023-02-02T09:49:54;101961.40;;;7.67;59.30
70256;BME280;57669;52.624;-1.688;2023-02-02T09:52:13;101964.18;;;7.53;60.06
70256;BME280;57669;52.624;-1.688;2023-02-02T09:54:40;101975.98;;;7.52;60.78
70256;BME280;57669;52.624;-1.688;2023-02-02T09:57:04;101965.39;;;7.55;60.66
70256;BME280;57669;52.624;-1.688;2023-02-02T09:59:32;101967.57;;;7.22;61.29
70256;BME280;57669;52.624;-1.688;2023-02-02T10:01:56;101967.01;;;7.40;61.17
70256;BME280;57669;52.624;-1.688;2023-02-02T10:04:23;101960.35;;;7.23;61.78
70256;BME280;57669;52.624;-1.688;2023-02-02T10:06:47;101953.99;;;6.96;61.89
70256;BME280;57669;52.624;-1.688;2023-02-02T10:09:21;101956.45;;;6.89;62.40
70256;BME280;57669;52.624;-1.688;2023-02-02T10:11:42;101952.59;;;6.97;63.46
70256;BME280;57669;52.624;-1.688;2023-02-02T10:14:08;101947.22;;;7.19;61.95
70256;BME280;57669;52.624;-1.688;2023-02-02T10:16:29;101944.76;;;7.19;62.29
70256;BME280;57669;52.624;-1.688;2023-02-02T10:18:58;101956.66;;;6.48;64.07
70256;BME280;57669;52.624;-1.688;2023-02-02T10:21:26;101956.64;;;7.41;63.00
70256;BME280;57669;52.624;-1.688;2023-02-02T10:23:46;101957.73;;;7.25;63.14
70256;BME280;57669;52.624;-1.688;2023-02-02T10:26:18;101961.42;;;6.30;64.78
70256;BME280;57669;52.624;-1.688;2023-02-02T10:28:42;101964.19;;;7.27;62.80
70256;BME280;57669;52.624;-1.688;2023-02-02T10:31:03;101973.73;;;6.69;63.70
70256;BME280;57669;52.624;-1.688;2023-02-02T10:33:35;101978.54;;;6.92;63.42
70256;BME280;57669;52.624;-1.688;2023-02-02T10:35:58;101974.95;;;6.99;63.23
70256;BME280;57669;52.624;-1.688;2023-02-02T10:38:25;101978.89;;;7.16;63.47
70256;BME280;57669;52.624;-1.688;2023-02-02T10:40:53;101980.67;;;6.89;62.88
70256;BME280;57669;52.624;-1.688;2023-02-02T10:43:28;101991.67;;;7.00;64.07
70256;BME280;57669;52.624;-1.688;2023-02-02T10:45:39;101991.00;;;7.19;63.76
70256;BME280;57669;52.624;-1.688;2023-02-02T10:48:07;101991.33;;;7.15;63.56
70256;BME280;57669;52.624;-1.688;2023-02-02T10:50:29;101993.04;;;7.64;61.99
70256;BME280;57669;52.624;-1.688;2023-02-02T10:53:00;101997.87;;;7.70;61.89
70256;BME280;57669;52.624;-1.688;2023-02-02T10:55:26;101983.14;;;8.03;60.76
70256;BME280;57669;52.624;-1.688;2023-02-02T10:57:52;101977.93;;;8.41;59.45
70256;BME280;57669;52.624;-1.688;2023-02-02T11:00:18;101987.38;;;8.31;59.36
70256;BME280;57669;52.624;-1.688;2023-02-02T11:02:37;101990.01;;;8.57;58.32
70256;BME280;57669;52.624;-1.688;2023-02-02T11:05:03;101985.64;;;8.32;59.51
70256;BME280;57669;52.624;-1.688;2023-02-02T11:07:29;101988.51;;;7.92;59.50
70256;BME280;57669;52.624;-1.688;2023-02-02T11:09:55;101978.32;;;8.37;58.57
70256;BME280;57669;52.624;-1.688;2023-02-02T11:12:26;101980.90;;;7.93;60.24
70256;BME280;57669;52.624;-1.688;2023-02-02T11:14:50;101979.97;;;8.10;59.35
70256;BME280;57669;52.624;-1.688;2023-02-02T11:17:18;101977.57;;;7.92;60.07
70256;BME280;57669;52.624;-1.688;2023-02-02T11:19:38;101974.46;;;8.63;57.79
70256;BME280;57669;52.624;-1.688;2023-02-02T11:22:04;101980.73;;;7.71;59.45
70256;BME280;57669;52.624;-1.688;2023-02-02T11:24:32;101966.53;;;8.34;58.65
70256;BME280;57669;52.624;-1.688;2023-02-02T11:26:59;101971.18;;;8.41;57.90
70256;BME280;57669;52.624;-1.688;2023-02-02T11:29:27;101972.30;;;8.20;57.37
70256;BME280;57669;52.624;-1.688;2023-02-02T11:31:47;101974.34;;;7.62;59.40
70256;BME280;57669;52.624;-1.688;2023-02-02T11:34:16;101970.26;;;8.09;58.51
70256;BME280;57669;52.624;-1.688;2023-02-02T11:36:38;101956.34;;;8.36;57.88
70256;BME280;57669;52.624;-1.688;2023-02-02T11:39:13;101961.78;;;7.49;58.95
70256;BME280;57669;52.624;-1.688;2023-02-02T11:41:30;101956.40;;;7.84;58.29
70256;BME280;57669;52.624;-1.688;2023-02-02T11:43:55;101950.42;;;7.92;57.51
70256;BME280;57669;52.624;-1.688;2023-02-02T11:46:24;101946.47;;;7.37;58.84
70256;BME280;57669;52.624;-1.688;2023-02-02T11:48:51;101949.27;;;7.68;58.86
70256;BME280;57669;52.624;-1.688;2023-02-02T11:51:21;101942.26;;;7.83;57.77
70256;BME280;57669;52.624;-1.688;2023-02-02T11:56:07;101952.26;;;7.14;57.97
70256;BME280;57669;52.624;-1.688;2023-02-02T12:00:59;101944.15;;;7.78;56.11
70256;BME280;57669;52.624;-1.688;2023-02-02T12:03:24;101944.48;;;7.38;56.31
70256;BME280;57669;52.624;-1.688;2023-02-02T12:05:47;101948.13;;;8.09;55.47
70256;BME280;57669;52.624;-1.688;2023-02-02T12:08:13;101948.18;;;7.71;55.67
70256;BME280;57669;52.624;-1.688;2023-02-02T12:10:42;101941.38;;;7.54;55.72
70256;BME280;57669;52.624;-1.688;2023-02-02T12:13:08;101950.27;;;7.70;55.00
70256;BME280;57669;52.624;-1.688;2023-02-02T12:15:38;101941.72;;;7.64;55.08
70256;BME280;57669;52.624;-1.688;2023-02-02T12:18:03;101940.31;;;8.03;53.57
70256;BME280;57669;52.624;-1.688;2023-02-02T12:20:30;101942.69;;;7.58;54.90
70256;BME280;57669;52.624;-1.688;2023-02-02T12:22:55;101930.63;;;8.01;54.01
70256;BME280;57669;52.624;-1.688;2023-02-02T12:27:46;101941.69;;;7.56;54.80
70256;BME280;57669;52.624;-1.688;2023-02-02T12:30:17;101930.41;;;7.83;54.06
70256;BME280;57669;52.624;-1.688;2023-02-02T12:32:43;101927.82;;;7.56;53.99
70256;BME280;57669;52.624;-1.688;2023-02-02T12:35:10;101938.00;;;8.51;52.15
70256;BME280;57669;52.624;-1.688;2023-02-02T12:37:34;101934.91;;;7.81;53.23
70256;BME280;57669;52.624;-1.688;2023-02-02T12:39:56;101915.49;;;8.13;52.92
70256;BME280;57669;52.624;-1.688;2023-02-02T12:42:23;101918.63;;;8.18;52.68
70256;BME280;57669;52.624;-1.688;2023-02-02T12:44:48;101918.61;;;8.19;52.24
70256;BME280;57669;52.624;-1.688;2023-02-02T12:47:15;101916.72;;;8.37;51.60
70256;BME280;57669;52.624;-1.688;2023-02-02T12:49:45;101919.02;;;7.62;53.43
70256;BME280;57669;52.624;-1.688;2023-02-02T12:52:11;101913.94;;;7.86;53.09